createdAt,value
2023-07-02T00:01:09.406Z,77.30
2023-07-02T00:03:44.983Z,77.70
2023-07-02T00:06:23.637Z,77.50
2023-07-02T00:08:55.129Z,77.40
2023-07-02T00:11:26.137Z,77.40
2023-07-02T00:14:01.858Z,77.60
2023-07-02T00:16:34.928Z,77.50
2023-07-02T00:19:03.430Z,77.40
2023-07-02T00:21:37.039Z,77.50
2023-07-02T00:24:06.279Z,77.40
2023-07-02T00:26:34.689Z,77.50
2023-07-02T00:29:05.093Z,77.50
2023-07-02T00:31:37.478Z,77.60
2023-07-02T00:34:09.158Z,77.40
2023-07-02T00:36:40.413Z,77.40
2023-07-02T00:39:08.980Z,77.50
2023-07-02T00:41:37.133Z,77.50
2023-07-02T00:44:05.659Z,77.40
2023-07-02T00:46:33.971Z,77.50
2023-07-02T00:49:03.942Z,77.60
2023-07-02T00:51:34.468Z,77.50
2023-07-02T00:54:06.224Z,77.50
2023-07-02T00:56:35.703Z,77.70
2023-07-02T00:59:04.518Z,77.80
2023-07-02T01:01:39.161Z,78.10
2023-07-02T01:04:10.438Z,78.00
2023-07-02T01:06:42.788Z,78.00
2023-07-02T01:09:15.217Z,78.10
2023-07-02T01:11:47.328Z,78.20
2023-07-02T01:14:20.912Z,78.00
2023-07-02T01:16:51.545Z,78.50
2023-07-02T01:19:24.509Z,78.10
2023-07-02T01:21:54.365Z,78.10
2023-07-02T01:24:23.411Z,78.20
2023-07-02T01:26:53.104Z,78.20
2023-07-02T01:29:25.114Z,78.30
2023-07-02T01:32:02.372Z,78.20
2023-07-02T01:34:40.174Z,78.50
2023-07-02T01:37:15.443Z,78.80
2023-07-02T01:39:43.958Z,78.90
2023-07-02T01:42:16.959Z,78.60
2023-07-02T01:44:46.666Z,78.60
2023-07-02T01:47:17.036Z,78.70
2023-07-02T01:49:47.167Z,78.60
2023-07-02T01:52:17.021Z,79.00
2023-07-02T01:54:45.945Z,78.80
2023-07-02T01:57:16.519Z,78.60
2023-07-02T01:59:44.975Z,78.60
2023-07-02T02:02:13.281Z,78.90
2023-07-02T02:04:42.050Z,78.80
2023-07-02T02:07:10.635Z,79.20
2023-07-02T02:09:40.205Z,79.00
2023-07-02T02:12:11.394Z,79.00
2023-07-02T02:14:39.591Z,79.00
2023-07-02T02:17:09.965Z,79.10
2023-07-02T02:19:38.265Z,79.40
2023-07-02T02:22:06.860Z,79.50
2023-07-02T02:24:35.730Z,79.70
2023-07-02T02:27:07.716Z,79.80
2023-07-02T02:29:37.957Z,80.00
2023-07-02T02:32:09.389Z,80.20
2023-07-02T02:34:37.893Z,80.30
2023-07-02T02:37:06.349Z,80.50
2023-07-02T02:39:37.038Z,80.50
2023-07-02T02:42:09.876Z,80.70
2023-07-02T02:44:41.112Z,80.90
2023-07-02T02:47:09.462Z,80.90
2023-07-02T02:49:40.649Z,81.10
2023-07-02T02:52:08.990Z,81.30
2023-07-02T02:54:37.499Z,81.30
2023-07-02T02:57:09.640Z,81.70
2023-07-02T02:59:40.904Z,81.50
2023-07-02T03:02:09.438Z,81.80
2023-07-02T03:04:42.517Z,82.00
2023-07-02T03:07:11.001Z,81.80
2023-07-02T03:09:39.340Z,81.90
2023-07-02T03:12:10.104Z,81.90
2023-07-02T03:14:38.671Z,81.90
2023-07-02T03:17:07.479Z,82.10
2023-07-02T03:19:40.878Z,81.90
2023-07-02T03:22:09.191Z,82.10
2023-07-02T03:24:39.687Z,82.10
2023-07-02T03:27:09.865Z,82.10
2023-07-02T03:29:39.347Z,82.20
2023-07-02T03:32:08.505Z,82.50
2023-07-02T03:34:36.750Z,82.20
2023-07-02T03:37:05.131Z,82.10
2023-07-02T03:39:36.168Z,82.10
2023-07-02T03:42:04.464Z,82.30
2023-07-02T03:44:36.258Z,82.20
2023-07-02T03:47:04.690Z,82.30
2023-07-02T03:49:33.004Z,83.10
2023-07-02T03:52:01.380Z,82.30
2023-07-02T03:54:29.977Z,83.20
2023-07-02T03:56:58.416Z,82.50
2023-07-02T03:59:26.722Z,82.50
2023-07-02T04:01:56.318Z,82.50
2023-07-02T04:04:24.827Z,82.50
2023-07-02T04:06:55.921Z,82.50
2023-07-02T04:09:24.108Z,82.50
2023-07-02T04:11:59.328Z,82.40
2023-07-02T04:14:27.674Z,83.00
2023-07-02T04:16:57.394Z,81.50
2023-07-02T04:19:28.317Z,81.30
2023-07-02T04:21:59.592Z,80.90
2023-07-02T04:24:28.304Z,80.40
2023-07-02T04:27:23.053Z,80.40
2023-07-02T04:29:48.962Z,80.00
2023-07-02T04:32:23.519Z,80.10
2023-07-02T04:34:53.713Z,79.80
2023-07-02T04:37:24.623Z,80.10
2023-07-02T04:39:58.385Z,80.40
2023-07-02T04:42:28.959Z,81.10
2023-07-02T04:44:57.419Z,80.80
2023-07-02T04:47:27.456Z,80.80
2023-07-02T04:49:56.023Z,80.70
2023-07-02T04:52:26.881Z,81.00
2023-07-02T04:54:59.348Z,81.00
2023-07-02T04:57:29.386Z,80.80
2023-07-02T04:59:57.733Z,80.90
2023-07-02T05:02:27.608Z,81.20
2023-07-02T05:04:56.069Z,81.40
2023-07-02T05:07:24.604Z,81.50
2023-07-02T05:09:54.148Z,81.40
2023-07-02T05:12:25.804Z,81.90
2023-07-02T05:14:56.498Z,82.40
2023-07-02T05:17:26.457Z,82.80
2023-07-02T05:19:54.731Z,82.90
2023-07-02T05:22:23.208Z,83.10
2023-07-02T05:24:55.832Z,83.50
2023-07-02T05:27:26.800Z,83.60
2023-07-02T05:30:07.664Z,83.30
2023-07-02T05:32:38.063Z,83.80
2023-07-02T05:35:09.169Z,83.70
2023-07-02T05:37:41.784Z,83.60
2023-07-02T05:40:16.063Z,84.00
2023-07-02T05:42:50.991Z,84.10
2023-07-02T05:45:25.497Z,84.30
2023-07-02T05:48:05.225Z,84.90
2023-07-02T05:50:42.991Z,84.50
2023-07-02T05:53:12.293Z,85.00
2023-07-02T05:56:03.548Z,84.00
2023-07-02T05:58:48.494Z,83.50
2023-07-02T06:01:19.666Z,83.60
2023-07-02T06:03:52.086Z,83.40
2023-07-02T06:06:20.962Z,83.30
2023-07-02T06:08:49.283Z,82.90
2023-07-02T06:11:27.624Z,82.60
2023-07-02T06:14:02.879Z,82.00
2023-07-02T06:16:31.321Z,81.90
2023-07-02T06:19:01.225Z,81.30
2023-07-02T06:21:31.908Z,81.00
2023-07-02T06:24:06.216Z,81.00
2023-07-02T06:26:34.555Z,81.00
2023-07-02T06:29:07.261Z,80.20
2023-07-02T06:31:38.605Z,80.30
2023-07-02T06:34:13.790Z,80.00
2023-07-02T06:40:06.677Z,79.40
2023-07-02T06:42:40.925Z,79.90
2023-07-02T06:45:10.648Z,80.00
2023-07-02T06:47:42.450Z,79.60
2023-07-02T06:50:19.158Z,79.50
2023-07-02T06:52:52.845Z,79.30
2023-07-02T06:55:31.493Z,79.10
2023-07-02T06:58:13.511Z,78.90
2023-07-02T07:01:04.261Z,79.00
2023-07-02T07:03:32.746Z,78.90
2023-07-02T07:06:04.979Z,78.30
2023-07-02T07:08:44.889Z,78.20
2023-07-02T07:11:24.571Z,78.10
2023-07-02T07:13:58.511Z,78.30
2023-07-02T07:16:27.138Z,78.00
2023-07-02T07:18:55.748Z,77.60
2023-07-02T07:21:25.887Z,77.20
2023-07-02T07:23:54.500Z,76.80
2023-07-02T07:26:26.550Z,76.70
2023-07-02T07:28:55.734Z,76.40
2023-07-02T07:31:24.224Z,75.90
2023-07-02T07:33:52.635Z,75.70
2023-07-02T07:36:21.679Z,75.60
2023-07-02T07:38:51.511Z,75.10
2023-07-02T07:41:26.774Z,75.40
2023-07-02T07:44:04.845Z,75.40
2023-07-02T07:46:52.827Z,74.80
2023-07-02T07:49:35.206Z,74.90
2023-07-02T07:52:07.993Z,74.80
2023-07-02T07:54:39.118Z,74.20
2023-07-02T07:57:13.337Z,74.20
2023-07-02T07:59:53.780Z,73.80
2023-07-02T08:02:30.404Z,74.20
2023-07-02T08:05:06.416Z,74.10
2023-07-02T08:07:44.004Z,73.00
2023-07-02T08:10:14.658Z,71.60
2023-07-02T08:12:54.040Z,70.90
2023-07-02T08:15:32.156Z,69.60
2023-07-02T08:18:16.527Z,69.20
2023-07-02T08:20:52.615Z,69.10
2023-07-02T08:23:24.704Z,69.40
2023-07-02T08:25:54.536Z,68.80
2023-07-02T08:28:29.040Z,68.40
2023-07-02T08:31:07.782Z,67.50
2023-07-02T08:33:44.161Z,67.50
2023-07-02T08:36:19.791Z,66.60
2023-07-02T08:38:53.165Z,65.80
2023-07-02T08:41:34.479Z,65.60
2023-07-02T08:44:05.756Z,65.20
2023-07-02T08:46:34.149Z,65.50
2023-07-02T08:49:10.255Z,64.60
2023-07-02T08:52:03.524Z,64.00
2023-07-02T08:54:57.704Z,63.60
2023-07-02T08:58:09.340Z,63.30
2023-07-02T09:00:55.951Z,63.20
2023-07-02T09:03:46.124Z,63.70
2023-07-02T09:06:30.848Z,62.80
2023-07-02T09:09:30.944Z,62.60
2023-07-02T09:12:10.949Z,62.20
2023-07-02T09:15:12.001Z,60.80
2023-07-02T09:17:50.229Z,59.90
2023-07-02T09:20:32.193Z,59.90
2023-07-02T09:23:27.901Z,59.90
2023-07-02T09:29:37.749Z,59.70
2023-07-02T09:33:01.932Z,60.10
2023-07-02T09:35:48.854Z,59.10
2023-07-02T09:38:55.866Z,59.10
2023-07-02T09:44:43.276Z,58.40
2023-07-02T09:47:59.021Z,58.00
2023-07-02T09:50:35.898Z,57.70
2023-07-02T09:53:38.282Z,57.90
2023-07-02T09:56:16.856Z,57.50
2023-07-02T09:59:00.697Z,57.80
2023-07-02T10:01:37.543Z,58.20
2023-07-02T10:04:34.419Z,58.00
2023-07-02T10:07:06.177Z,57.60
2023-07-02T10:10:45.244Z,57.70
2023-07-02T10:37:32.513Z,56.70
2023-07-02T10:40:25.445Z,56.40
2023-07-02T10:42:58.698Z,55.90
2023-07-02T10:46:02.119Z,56.10
2023-07-02T10:48:45.936Z,55.50
2023-07-02T10:51:21.054Z,55.40
2023-07-02T10:54:30.348Z,55.00
2023-07-02T10:57:22.118Z,53.90
2023-07-02T10:59:50.799Z,53.60
2023-07-02T11:02:20.835Z,53.70
2023-07-02T11:04:49.666Z,53.90
2023-07-02T11:07:49.852Z,53.80
2023-07-02T11:10:22.454Z,53.90
2023-07-02T11:12:50.670Z,53.60
2023-07-02T11:15:19.857Z,53.50
2023-07-02T11:17:48.451Z,53.40
2023-07-02T11:20:17.344Z,53.80
2023-07-02T11:22:48.971Z,53.90
2023-07-02T11:25:21.110Z,53.80
2023-07-02T11:28:03.903Z,53.30
2023-07-02T11:30:36.936Z,52.90
2023-07-02T11:33:05.539Z,52.80
2023-07-02T11:35:37.936Z,52.70
2023-07-02T11:38:07.597Z,52.10
2023-07-02T11:40:38.586Z,52.30
2023-07-02T11:43:14.664Z,52.30
2023-07-02T11:45:47.472Z,52.50
2023-07-02T11:48:16.027Z,51.50
2023-07-02T11:50:44.432Z,51.90
2023-07-02T11:53:12.709Z,52.00
2023-07-02T11:56:26.798Z,52.00
2023-07-02T11:58:56.489Z,51.80
2023-07-02T12:01:45.167Z,52.10
2023-07-02T12:04:39.148Z,52.70
2023-07-02T12:07:30.076Z,52.90
2023-07-02T12:14:11.246Z,49.80
2023-07-02T12:16:49.424Z,48.70
2023-07-02T12:19:36.046Z,48.90
2023-07-02T12:22:34.613Z,49.80
2023-07-02T12:25:06.645Z,50.50
2023-07-02T12:28:01.417Z,50.80
2023-07-02T12:30:29.724Z,50.50
2023-07-02T12:33:05.698Z,49.80
2023-07-02T12:35:36.660Z,49.90
2023-07-02T12:38:05.156Z,48.80
2023-07-02T12:40:37.726Z,48.00
2023-07-02T12:44:13.862Z,48.30
2023-07-02T12:47:47.278Z,47.10
2023-07-02T12:50:20.376Z,47.00
2023-07-02T12:52:49.136Z,47.90
2023-07-02T12:55:18.459Z,48.10
2023-07-02T12:58:19.611Z,47.80
2023-07-02T13:00:48.911Z,48.30
2023-07-02T13:03:21.516Z,48.70
2023-07-02T13:05:54.297Z,48.20
2023-07-02T13:08:25.939Z,46.70
2023-07-02T13:10:56.941Z,46.00
2023-07-02T13:13:26.864Z,45.90
2023-07-02T13:15:57.279Z,46.70
2023-07-02T13:18:25.586Z,47.00
2023-07-02T13:20:55.275Z,47.90
2023-07-02T13:23:23.737Z,48.80
2023-07-02T13:25:54.482Z,49.70
2023-07-02T13:28:26.351Z,50.50
2023-07-02T13:30:56.832Z,50.20
2023-07-02T13:33:27.163Z,50.20
2023-07-02T13:35:56.876Z,51.30
2023-07-02T13:38:25.191Z,50.60
2023-07-02T13:40:53.604Z,49.10
2023-07-02T13:43:24.166Z,48.40
2023-07-02T13:45:54.838Z,47.70
2023-07-02T13:48:23.185Z,48.30
2023-07-02T13:50:51.515Z,48.70
2023-07-02T13:53:25.366Z,49.50
2023-07-02T13:56:06.208Z,49.20
2023-07-02T13:58:51.173Z,49.70
2023-07-02T14:01:21.163Z,50.10
2023-07-02T14:03:52.170Z,50.80
2023-07-02T14:06:31.509Z,50.30
2023-07-02T14:09:00.204Z,49.50
2023-07-02T14:11:45.729Z,48.80
2023-07-02T14:14:21.681Z,48.30
2023-07-02T14:17:12.505Z,48.50
2023-07-02T14:19:56.867Z,48.20
2023-07-02T14:22:27.744Z,48.20
2023-07-02T14:24:59.552Z,48.50
2023-07-02T14:27:37.923Z,48.80
2023-07-02T14:30:14.566Z,49.00
2023-07-02T14:32:49.637Z,49.20
2023-07-02T14:35:34.622Z,49.80
2023-07-02T14:38:03.322Z,50.30
2023-07-02T14:43:52.632Z,50.90
2023-07-02T14:49:43.499Z,49.70
2023-07-02T14:52:24.870Z,49.30
2023-07-02T14:58:58.936Z,47.60
2023-07-02T15:01:28.024Z,47.80
2023-07-02T15:04:10.385Z,47.90
2023-07-02T15:06:48.232Z,47.70
2023-07-02T15:09:36.300Z,48.30
2023-07-02T15:15:52.945Z,48.90
2023-07-02T15:21:28.408Z,49.90
2023-07-02T15:24:26.853Z,50.80
2023-07-02T15:27:07.837Z,50.20
2023-07-02T15:29:52.290Z,50.10
2023-07-02T15:32:33.756Z,50.00
2023-07-02T15:35:20.942Z,49.80
2023-07-02T15:42:16.409Z,49.30
2023-07-02T15:44:48.304Z,48.60
2023-07-02T15:51:45.809Z,47.50
2023-07-02T15:54:21.782Z,47.20
2023-07-02T15:57:02.284Z,47.10
2023-07-02T16:02:30.401Z,46.90
2023-07-02T16:05:08.737Z,46.10
2023-07-02T16:07:49.708Z,45.70
2023-07-02T16:10:20.914Z,45.60
2023-07-02T16:13:00.350Z,45.20
2023-07-02T16:15:59.323Z,45.70
2023-07-02T16:18:37.934Z,45.90
2023-07-02T16:21:27.392Z,45.10
2023-07-02T16:24:04.581Z,45.00
2023-07-02T16:26:47.822Z,44.90
2023-07-02T16:30:09.196Z,45.00
2023-07-02T16:33:50.014Z,45.00
2023-07-02T16:37:18.276Z,44.60
2023-07-02T16:40:05.219Z,45.60
2023-07-02T16:42:54.048Z,45.10
2023-07-02T16:46:26.743Z,45.30
2023-07-02T16:49:46.384Z,45.70
2023-07-02T16:52:42.123Z,46.40
2023-07-02T17:01:45.049Z,45.60
2023-07-02T17:07:15.375Z,46.20
2023-07-02T17:10:35.139Z,46.10
2023-07-02T17:16:12.820Z,46.00
2023-07-02T17:19:25.126Z,45.90
2023-07-02T17:22:13.897Z,45.90
2023-07-02T17:24:53.562Z,45.80
2023-07-02T17:33:07.510Z,46.40
2023-07-02T17:36:21.933Z,47.10
2023-07-02T17:39:09.386Z,46.90
2023-07-02T17:41:52.162Z,47.80
2023-07-02T17:48:19.117Z,47.80
2023-07-02T17:55:47.210Z,47.70
2023-07-02T17:58:45.082Z,48.50
2023-07-02T18:02:07.488Z,48.00
2023-07-02T18:05:07.695Z,48.50
2023-07-02T18:07:51.207Z,48.80
2023-07-02T18:10:38.963Z,48.70
2023-07-02T18:20:19.008Z,49.50
2023-07-02T18:23:32.792Z,50.50
2023-07-02T18:26:39.375Z,50.10
2023-07-02T18:29:18.878Z,50.70
2023-07-02T18:32:12.235Z,51.50
2023-07-02T18:34:42.970Z,51.00
2023-07-02T18:37:29.475Z,51.20
2023-07-02T18:40:51.141Z,51.60
2023-07-02T18:43:50.814Z,51.20
2023-07-02T18:46:48.368Z,51.70
2023-07-02T18:49:38.872Z,52.00
2023-07-02T18:52:29.881Z,52.10
2023-07-02T19:08:43.666Z,52.60
2023-07-02T19:15:15.193Z,53.40
2023-07-02T19:18:26.448Z,53.30
2023-07-02T19:24:15.016Z,53.40
2023-07-02T19:30:37.339Z,54.30
2023-07-02T19:41:20.302Z,54.50
2023-07-02T19:47:46.258Z,54.50
2023-07-02T19:50:53.296Z,54.70
2023-07-02T19:53:32.094Z,54.80
2023-07-02T19:56:23.506Z,55.00
2023-07-02T19:59:58.367Z,55.20
2023-07-02T20:03:27.331Z,55.20
2023-07-02T20:06:44.315Z,55.20
2023-07-02T20:09:25.615Z,55.30
2023-07-02T20:12:09.856Z,55.80
2023-07-02T20:15:01.866Z,56.00
2023-07-02T20:17:56.078Z,55.90
2023-07-02T20:20:56.634Z,55.90
2023-07-02T20:24:09.728Z,56.10
2023-07-02T20:26:58.929Z,56.50
2023-07-02T20:30:14.898Z,56.40
2023-07-02T20:35:57.720Z,56.70
2023-07-02T20:38:33.449Z,56.70
2023-07-02T20:41:18.320Z,57.10
2023-07-02T20:43:55.897Z,57.20
2023-07-02T20:46:32.851Z,57.70
2023-07-02T20:49:24.156Z,58.20
2023-07-02T20:55:58.529Z,58.00
2023-07-02T21:03:09.980Z,58.20
2023-07-02T21:06:07.653Z,58.50
2023-07-02T21:11:47.798Z,59.10
2023-07-02T21:14:43.580Z,59.10
2023-07-02T21:17:46.499Z,59.30
2023-07-02T21:20:29.226Z,59.60
2023-07-02T21:23:31.913Z,59.80
2023-07-02T21:26:23.538Z,59.80
2023-07-02T21:29:03.170Z,59.60
2023-07-02T21:32:14.116Z,60.00
2023-07-02T21:35:07.113Z,60.60
2023-07-02T21:38:19.719Z,60.10
2023-07-02T21:40:57.859Z,60.60
2023-07-02T21:43:48.477Z,59.90
2023-07-02T21:46:40.153Z,60.60
2023-07-02T21:49:47.108Z,60.30
2023-07-02T21:53:17.801Z,61.10
2023-07-02T21:56:22.133Z,60.70
2023-07-02T21:59:20.834Z,60.30
2023-07-02T22:02:35.705Z,61.10
2023-07-02T22:05:17.160Z,62.20
2023-07-02T22:07:48.109Z,62.30
2023-07-02T22:10:23.435Z,62.30
2023-07-02T22:16:59.754Z,62.80
2023-07-02T22:19:57.670Z,61.90
2023-07-02T22:22:38.618Z,62.00
2023-07-02T22:25:22.261Z,62.20
2023-07-02T22:28:11.268Z,62.10
2023-07-02T22:30:59.562Z,62.00
2023-07-02T22:33:52.080Z,62.90
2023-07-02T22:36:38.967Z,62.60
2023-07-02T22:39:15.039Z,62.80
2023-07-02T22:42:01.882Z,63.30
2023-07-02T22:44:53.006Z,63.30
2023-07-02T22:50:46.744Z,63.00
2023-07-02T22:53:37.696Z,63.10
2023-07-02T22:56:26.704Z,63.10
2023-07-02T22:59:02.719Z,62.50
2023-07-02T23:01:41.306Z,62.10
2023-07-02T23:04:20.038Z,62.10
2023-07-02T23:07:00.985Z,62.50
2023-07-02T23:09:50.143Z,62.50
2023-07-02T23:12:28.189Z,62.30
2023-07-02T23:15:14.315Z,62.40
2023-07-02T23:17:50.996Z,62.80
2023-07-02T23:21:01.143Z,62.80
2023-07-02T23:23:45.923Z,63.10
2023-07-02T23:26:23.101Z,63.80
2023-07-02T23:29:00.086Z,63.50
2023-07-02T23:31:30.551Z,63.50
2023-07-02T23:34:15.809Z,63.50
2023-07-02T23:37:01.611Z,63.80
2023-07-02T23:39:47.867Z,63.80
2023-07-02T23:42:35.416Z,63.70
2023-07-02T23:45:24.475Z,64.10
2023-07-02T23:48:16.656Z,63.60
2023-07-02T23:51:00.749Z,63.20
2023-07-02T23:53:43.415Z,63.70
2023-07-02T23:56:30.031Z,64.40
2023-07-02T23:59:14.682Z,64.90
